createdAt,value
2023-04-21T00:01:59.348Z,19.07
2023-04-21T00:04:02.226Z,21.03
2023-04-21T00:06:09.501Z,25.30
2023-04-21T00:08:11.603Z,21.03
2023-04-21T00:10:13.618Z,15.00
2023-04-21T00:12:15.652Z,13.97
2023-04-21T00:14:17.903Z,16.07
2023-04-21T00:16:19.997Z,14.00
2023-04-21T00:18:22.747Z,16.27
2023-04-21T00:20:26.909Z,16.00
2023-04-21T00:22:28.935Z,15.57
2023-04-21T00:24:30.913Z,18.00
2023-04-21T00:26:32.976Z,17.97
2023-04-21T00:28:35.290Z,12.30
2023-04-21T00:30:39.145Z,13.83
2023-04-21T00:32:41.271Z,23.10
2023-04-21T00:34:43.267Z,14.23
2023-04-21T00:36:47.353Z,15.20
2023-04-21T00:38:49.408Z,14.30
2023-04-21T00:40:51.417Z,11.20
2023-04-21T00:42:53.465Z,20.83
2023-04-21T00:44:56.364Z,11.90
2023-04-21T00:46:58.813Z,14.27
2023-04-21T00:49:04.672Z,14.43
2023-04-21T00:51:06.946Z,13.73
2023-04-21T00:53:10.028Z,15.10
2023-04-21T00:55:12.121Z,19.13
2023-04-21T00:57:14.194Z,16.70
2023-04-21T00:59:16.364Z,17.70
2023-04-21T01:01:19.190Z,19.67
2023-04-21T01:03:21.334Z,16.30
2023-04-21T01:05:23.504Z,20.10
2023-04-21T01:07:26.082Z,14.40
2023-04-21T01:09:28.309Z,13.40
2023-04-21T01:11:32.161Z,25.90
2023-04-21T01:13:35.373Z,15.60
2023-04-21T01:15:37.385Z,16.43
2023-04-21T01:17:40.522Z,13.80
2023-04-21T01:19:43.222Z,11.47
2023-04-21T01:21:45.369Z,20.93
2023-04-21T01:23:47.501Z,15.00
2023-04-21T01:25:51.224Z,18.83
2023-04-21T01:27:53.358Z,23.13
2023-04-21T01:29:56.976Z,17.23
2023-04-21T01:31:59.000Z,15.23
2023-04-21T01:34:04.407Z,15.37
2023-04-21T01:36:07.026Z,13.10
2023-04-21T01:38:09.071Z,17.40
2023-04-21T01:40:11.423Z,18.43
2023-04-21T01:42:14.076Z,13.83
2023-04-21T01:44:17.339Z,19.73
2023-04-21T01:46:20.697Z,17.73
2023-04-21T01:48:22.728Z,22.73
2023-04-21T01:50:24.842Z,14.90
2023-04-21T01:52:26.842Z,16.37
2023-04-21T01:54:29.754Z,16.27
2023-04-21T01:56:31.823Z,21.30
2023-04-21T01:58:34.915Z,17.73
2023-04-21T02:00:37.670Z,15.90
2023-04-21T02:02:40.400Z,18.37
2023-04-21T02:04:42.592Z,22.60
2023-04-21T02:06:44.755Z,21.90
2023-04-21T02:08:46.943Z,15.43
2023-04-21T02:10:49.788Z,15.57
2023-04-21T02:12:51.926Z,23.20
2023-04-21T02:14:54.098Z,21.20
2023-04-21T02:16:56.404Z,11.87
2023-04-21T02:18:59.769Z,17.57
2023-04-21T02:21:03.060Z,22.73
2023-04-21T02:23:05.151Z,21.20
2023-04-21T02:25:07.598Z,14.83
2023-04-21T02:27:09.719Z,16.37
2023-04-21T02:29:11.786Z,16.13
2023-04-21T02:31:13.973Z,21.70
2023-04-21T02:33:16.159Z,16.50
2023-04-21T02:35:18.240Z,14.73
2023-04-21T02:37:20.972Z,20.10
2023-04-21T02:39:23.016Z,20.73
2023-04-21T02:41:25.090Z,14.10
2023-04-21T02:43:27.087Z,30.57
2023-04-21T02:45:30.700Z,22.83
2023-04-21T02:47:32.821Z,12.83
2023-04-21T02:49:34.839Z,14.87
2023-04-21T02:51:37.474Z,22.33
2023-04-21T02:53:40.556Z,13.23
2023-04-21T02:55:42.950Z,22.40
2023-04-21T02:57:45.027Z,17.33
2023-04-21T02:59:47.082Z,16.87
2023-04-21T03:01:49.315Z,14.57
2023-04-21T03:03:51.547Z,18.30
2023-04-21T03:06:03.697Z,17.37
2023-04-21T03:08:05.825Z,21.87
2023-04-21T03:10:10.422Z,15.23
2023-04-21T03:12:12.553Z,16.63
2023-04-21T03:14:14.629Z,25.20
2023-04-21T03:16:17.054Z,17.53
2023-04-21T03:18:19.381Z,14.93
2023-04-21T03:20:21.640Z,16.83
2023-04-21T03:22:23.752Z,15.80
2023-04-21T03:24:26.312Z,24.03
2023-04-21T03:26:28.417Z,15.27
2023-04-21T03:28:30.487Z,14.63
2023-04-21T03:30:32.668Z,20.97
2023-04-21T03:32:34.716Z,13.80
2023-04-21T03:34:36.763Z,16.83
2023-04-21T03:36:40.334Z,16.47
2023-04-21T03:38:42.801Z,16.77
2023-04-21T03:40:44.805Z,17.07
2023-04-21T03:42:46.949Z,15.83
2023-04-21T03:44:49.015Z,30.80
2023-04-21T03:46:53.531Z,19.30
2023-04-21T03:48:57.337Z,20.83
2023-04-21T03:50:59.460Z,17.60
2023-04-21T03:53:01.436Z,16.77
2023-04-21T03:55:05.117Z,20.13
2023-04-21T03:57:07.103Z,16.37
2023-04-21T03:59:09.087Z,16.13
2023-04-21T04:01:11.121Z,26.73
2023-04-21T04:03:13.280Z,15.10
2023-04-21T04:05:15.590Z,17.53
2023-04-21T04:07:17.776Z,17.57
2023-04-21T04:09:19.912Z,19.27
2023-04-21T04:11:22.086Z,20.00
2023-04-21T04:13:26.412Z,18.47
2023-04-21T04:15:28.424Z,26.10
2023-04-21T04:17:30.481Z,18.63
2023-04-21T04:19:32.640Z,14.57
2023-04-21T04:21:35.165Z,19.73
2023-04-21T04:23:37.645Z,17.23
2023-04-21T04:25:40.146Z,17.70
2023-04-21T04:27:44.358Z,14.33
2023-04-21T04:29:46.514Z,22.03
2023-04-21T04:31:50.215Z,13.73
2023-04-21T04:33:54.878Z,18.20
2023-04-21T04:35:58.357Z,20.37
2023-04-21T04:38:00.508Z,18.17
2023-04-21T04:40:05.573Z,15.70
2023-04-21T04:42:09.568Z,14.37
2023-04-21T04:44:11.562Z,16.67
2023-04-21T04:46:13.894Z,18.90
2023-04-21T04:48:16.187Z,16.93
2023-04-21T04:50:18.219Z,17.30
2023-04-21T04:52:20.273Z,20.03
2023-04-21T04:54:22.791Z,12.87
2023-04-21T04:56:24.870Z,17.13
2023-04-21T04:58:26.868Z,17.13
2023-04-21T05:00:29.072Z,19.00
2023-04-21T05:02:31.744Z,22.27
2023-04-21T05:04:37.113Z,18.30
2023-04-21T05:06:39.214Z,17.60
2023-04-21T05:08:41.635Z,16.60
2023-04-21T05:10:43.626Z,19.37
2023-04-21T05:12:45.654Z,19.20
2023-04-21T05:14:48.591Z,16.40
2023-04-21T05:16:50.587Z,22.90
2023-04-21T05:18:54.139Z,21.83
2023-04-21T05:20:56.659Z,20.10
2023-04-21T05:22:58.646Z,24.97
2023-04-21T05:25:00.740Z,22.60
2023-04-21T05:27:05.583Z,17.83
2023-04-21T05:29:07.604Z,17.70
2023-04-21T05:31:09.547Z,16.73
2023-04-21T05:33:11.692Z,18.97
2023-04-21T05:35:13.828Z,19.53
2023-04-21T05:37:15.950Z,17.53
2023-04-21T05:39:18.158Z,17.70
2023-04-21T05:41:21.499Z,20.83
2023-04-21T05:43:23.733Z,20.87
2023-04-21T05:45:25.914Z,19.93
2023-04-21T05:47:28.168Z,14.70
2023-04-21T05:49:30.295Z,18.93
2023-04-21T05:51:32.571Z,16.43
2023-04-21T05:53:34.590Z,21.10
2023-04-21T05:55:36.697Z,24.93
2023-04-21T05:57:38.703Z,21.10
2023-04-21T05:59:40.689Z,18.10
2023-04-21T06:01:43.658Z,16.47
2023-04-21T06:03:45.936Z,17.43
2023-04-21T06:05:48.291Z,20.30
2023-04-21T06:07:50.401Z,18.10
2023-04-21T06:09:52.414Z,12.47
2023-04-21T06:11:54.440Z,19.00
2023-04-21T06:13:58.676Z,12.80
2023-04-21T06:16:00.704Z,19.80
2023-04-21T06:18:02.781Z,12.33
2023-04-21T06:20:05.289Z,19.07
2023-04-21T06:22:07.401Z,16.90
2023-04-21T06:24:09.583Z,18.47
2023-04-21T06:26:11.733Z,13.47
2023-04-21T06:28:13.816Z,15.53
2023-04-21T06:30:16.112Z,15.03
2023-04-21T06:32:18.243Z,24.37
2023-04-21T06:34:21.731Z,18.30
2023-04-21T06:36:23.895Z,18.50
2023-04-21T06:38:26.054Z,16.33
2023-04-21T06:40:28.020Z,21.13
2023-04-21T06:42:29.987Z,17.57
2023-04-21T06:44:32.440Z,17.07
2023-04-21T06:46:34.497Z,18.30
2023-04-21T06:48:36.620Z,13.63
2023-04-21T06:50:38.645Z,20.73
2023-04-21T06:52:40.666Z,13.83
2023-04-21T06:54:42.656Z,18.77
2023-04-21T06:56:44.615Z,16.43
2023-04-21T06:58:47.112Z,17.73
2023-04-21T07:00:49.382Z,17.70
2023-04-21T07:02:51.672Z,16.60
2023-04-21T07:04:53.780Z,21.50
2023-04-21T07:06:56.755Z,15.00
2023-04-21T07:08:58.803Z,15.53
2023-04-21T07:11:00.847Z,21.23
2023-04-21T07:13:02.964Z,19.57
2023-04-21T07:15:05.974Z,15.63
2023-04-21T07:17:09.081Z,17.87
2023-04-21T07:19:11.132Z,15.97
2023-04-21T07:21:13.240Z,17.63
2023-04-21T07:23:15.330Z,13.80
2023-04-21T07:25:17.422Z,19.70
2023-04-21T07:27:19.560Z,18.50
2023-04-21T07:29:21.710Z,19.03
2023-04-21T07:31:24.666Z,22.20
2023-04-21T07:33:26.815Z,15.87
2023-04-21T07:35:28.808Z,13.70
2023-04-21T07:37:30.891Z,19.30
2023-04-21T07:39:32.899Z,15.83
2023-04-21T07:41:35.037Z,17.43
2023-04-21T07:43:37.092Z,18.10
2023-04-21T07:45:39.367Z,16.10
2023-04-21T07:47:41.547Z,15.50
2023-04-21T07:49:43.772Z,20.10
2023-04-21T07:51:45.942Z,15.50
2023-04-21T07:53:48.009Z,12.93
2023-04-21T07:55:50.182Z,18.00
2023-04-21T07:57:52.224Z,15.60
2023-04-21T07:59:54.266Z,16.30
2023-04-21T08:01:56.590Z,21.57
2023-04-21T08:03:58.901Z,19.30
2023-04-21T08:06:01.926Z,17.90
2023-04-21T08:08:04.463Z,17.10
2023-04-21T08:10:07.754Z,18.10
2023-04-21T08:12:09.829Z,16.53
2023-04-21T08:14:11.985Z,20.27
2023-04-21T08:16:15.241Z,17.90
2023-04-21T08:18:20.606Z,12.90
2023-04-21T08:20:24.541Z,16.27
2023-04-21T08:22:26.628Z,20.40
2023-04-21T08:24:28.653Z,16.70
2023-04-21T08:26:30.850Z,15.40
2023-04-21T08:28:33.028Z,17.93
2023-04-21T08:30:35.079Z,13.50
2023-04-21T08:32:37.172Z,16.00
2023-04-21T08:34:39.257Z,18.33
2023-04-21T08:36:42.794Z,15.33
2023-04-21T08:38:45.068Z,21.90
2023-04-21T08:40:47.925Z,22.90
2023-04-21T08:42:49.947Z,18.27
2023-04-21T08:44:52.685Z,18.70
2023-04-21T08:46:56.308Z,13.23
2023-04-21T08:48:58.975Z,17.57
2023-04-21T08:51:02.213Z,13.67
2023-04-21T08:53:04.372Z,14.93
2023-04-21T08:55:07.598Z,14.13
2023-04-21T08:57:15.369Z,11.13
2023-04-21T08:59:18.186Z,19.00
2023-04-21T09:01:20.730Z,12.63
2023-04-21T09:03:26.260Z,14.53
2023-04-21T09:05:30.695Z,17.53
2023-04-21T09:07:41.932Z,13.27
2023-04-21T09:09:53.658Z,12.73
2023-04-21T09:11:57.317Z,13.20
2023-04-21T09:13:59.685Z,15.40
2023-04-21T09:16:08.412Z,13.27
2023-04-21T09:18:14.023Z,13.80
2023-04-21T09:20:17.557Z,15.63
2023-04-21T09:22:19.783Z,9.97
2023-04-21T09:24:21.900Z,12.30
2023-04-21T09:26:23.993Z,12.93
2023-04-21T09:28:31.983Z,14.60
2023-04-21T09:30:36.554Z,12.10
2023-04-21T09:32:41.795Z,15.30
2023-04-21T09:34:44.515Z,15.00
2023-04-21T09:36:47.507Z,11.37
2023-04-21T09:39:25.222Z,16.37
2023-04-21T09:41:21.932Z,19.87
2023-04-21T09:43:24.142Z,12.10
2023-04-21T09:45:39.038Z,21.30
2023-04-21T09:47:43.253Z,14.33
2023-04-21T09:49:46.204Z,11.37
2023-04-21T09:52:16.928Z,15.47
2023-04-21T09:56:30.063Z,12.53
2023-04-21T09:58:36.282Z,11.63
2023-04-21T10:00:39.887Z,17.13
2023-04-21T10:02:51.184Z,11.10
2023-04-21T10:04:54.121Z,12.00
2023-04-21T10:06:56.756Z,11.97
2023-04-21T10:08:59.151Z,12.33
2023-04-21T10:11:02.371Z,9.17
2023-04-21T10:13:04.611Z,12.03
2023-04-21T10:15:34.428Z,13.80
2023-04-21T10:17:39.456Z,10.47
2023-04-21T10:19:50.089Z,9.77
2023-04-21T10:21:56.290Z,11.73
2023-04-21T10:23:59.251Z,10.33
2023-04-21T10:26:25.730Z,7.20
2023-04-21T10:28:41.693Z,9.93
2023-04-21T10:30:46.791Z,9.07
2023-04-21T10:32:49.640Z,9.00
2023-04-21T10:34:51.866Z,9.40
2023-04-21T10:36:57.395Z,14.13
2023-04-21T10:39:03.875Z,12.17
2023-04-21T10:41:30.136Z,8.37
2023-04-21T10:43:49.600Z,9.90
2023-04-21T10:45:52.093Z,7.70
2023-04-21T10:47:54.291Z,8.33
2023-04-21T10:49:58.220Z,10.83
2023-04-21T10:52:02.483Z,7.30
2023-04-21T10:54:05.867Z,10.27
2023-04-21T10:56:08.194Z,6.17
2023-04-21T10:58:10.420Z,8.43
2023-04-21T11:00:17.640Z,8.00
2023-04-21T11:02:20.122Z,10.27
2023-04-21T11:04:23.669Z,6.80
2023-04-21T11:06:27.212Z,7.23
2023-04-21T11:08:30.457Z,8.70
2023-04-21T11:11:01.977Z,7.67
2023-04-21T11:13:04.162Z,9.17
2023-04-21T11:15:08.556Z,13.03
2023-04-21T11:17:15.673Z,11.13
2023-04-21T11:19:17.936Z,13.03
2023-04-21T11:21:23.016Z,9.10
2023-04-21T11:23:25.329Z,8.97
2023-04-21T11:25:27.483Z,7.60
2023-04-21T11:27:30.854Z,8.17
2023-04-21T11:29:33.906Z,7.50
2023-04-21T11:31:37.569Z,6.37
2023-04-21T11:33:40.192Z,15.70
2023-04-21T11:35:42.488Z,5.93
2023-04-21T11:37:44.674Z,8.00
2023-04-21T11:39:46.816Z,5.70
2023-04-21T11:41:50.862Z,11.20
2023-04-21T11:43:53.050Z,5.63
2023-04-21T11:45:55.275Z,6.20
2023-04-21T11:48:13.838Z,8.10
2023-04-21T11:50:31.757Z,6.17
2023-04-21T11:52:37.580Z,7.47
2023-04-21T11:54:39.982Z,12.10
2023-04-21T11:56:43.997Z,6.03
2023-04-21T11:58:46.564Z,7.23
2023-04-21T12:00:50.965Z,7.80
2023-04-21T12:02:57.077Z,7.33
2023-04-21T12:05:05.287Z,6.13
2023-04-21T12:07:07.584Z,8.23
2023-04-21T12:09:17.361Z,7.83
2023-04-21T12:11:19.699Z,16.20
2023-04-21T12:13:27.298Z,10.60
2023-04-21T12:15:30.475Z,12.00
2023-04-21T12:17:48.248Z,11.43
2023-04-21T12:19:50.686Z,7.17
2023-04-21T12:21:54.761Z,8.63
2023-04-21T12:23:57.469Z,6.10
2023-04-21T12:26:00.680Z,11.63
2023-04-21T12:28:02.833Z,7.87
2023-04-21T12:30:06.195Z,7.63
2023-04-21T12:32:09.827Z,8.43
2023-04-21T12:34:12.351Z,7.37
2023-04-21T12:36:14.609Z,10.70
2023-04-21T12:38:16.720Z,5.97
2023-04-21T12:40:19.053Z,12.33
2023-04-21T12:42:21.250Z,7.20
2023-04-21T12:44:23.532Z,6.20
2023-04-21T12:46:25.689Z,6.37
2023-04-21T12:48:27.900Z,7.07
2023-04-21T12:50:30.059Z,7.47
2023-04-21T12:52:32.291Z,5.30
2023-04-21T12:54:34.565Z,11.47
2023-04-21T12:56:36.936Z,5.47
2023-04-21T12:58:39.084Z,8.80
2023-04-21T13:00:41.522Z,11.70
2023-04-21T13:02:43.839Z,10.30
2023-04-21T13:04:46.130Z,6.30
2023-04-21T13:06:48.303Z,9.30
2023-04-21T13:08:50.484Z,10.90
2023-04-21T13:10:54.675Z,6.73
2023-04-21T13:12:57.447Z,6.50
2023-04-21T13:14:59.594Z,8.00
2023-04-21T13:17:01.925Z,8.40
2023-04-21T13:19:04.498Z,10.70
2023-04-21T13:21:06.655Z,6.20
2023-04-21T13:23:09.003Z,5.50
2023-04-21T13:25:11.236Z,6.60
2023-04-21T13:27:13.362Z,7.40
2023-04-21T13:29:16.060Z,7.50
2023-04-21T13:31:18.245Z,7.50
2023-04-21T13:33:21.232Z,9.87
2023-04-21T13:35:23.456Z,6.10
2023-04-21T13:37:26.016Z,6.13
2023-04-21T13:39:28.273Z,9.93
2023-04-21T13:41:30.633Z,5.83
2023-04-21T13:43:32.862Z,5.77
2023-04-21T13:45:34.998Z,9.93
2023-04-21T13:47:37.330Z,11.30
2023-04-21T13:49:40.155Z,5.60
2023-04-21T13:51:42.349Z,13.53
2023-04-21T13:53:44.513Z,7.43
2023-04-21T13:55:46.893Z,15.13
2023-04-21T13:57:49.111Z,10.33
2023-04-21T13:59:51.353Z,8.63
2023-04-21T14:01:53.602Z,6.47
2023-04-21T14:03:56.995Z,8.57
2023-04-21T14:06:01.151Z,7.60
2023-04-21T14:08:03.300Z,6.50
2023-04-21T14:10:06.058Z,7.53
2023-04-21T14:12:08.306Z,10.13
2023-04-21T14:14:10.602Z,5.00
2023-04-21T14:16:13.010Z,8.97
2023-04-21T14:18:15.437Z,8.37
2023-04-21T14:20:17.732Z,5.10
2023-04-21T14:22:20.659Z,8.50
2023-04-21T14:24:22.973Z,7.53
2023-04-21T14:26:25.190Z,7.00
2023-04-21T14:28:27.336Z,6.53
2023-04-21T14:30:29.543Z,11.20
2023-04-21T14:32:31.826Z,7.90
2023-04-21T14:34:34.301Z,6.73
2023-04-21T14:36:37.287Z,9.53
2023-04-21T14:38:39.728Z,5.77
2023-04-21T14:40:41.902Z,8.10
2023-04-21T14:42:44.129Z,7.73
2023-04-21T14:44:46.327Z,8.20
2023-04-21T14:46:57.464Z,5.73
2023-04-21T14:49:08.226Z,7.80
2023-04-21T14:51:10.623Z,5.83
2023-04-21T14:53:12.774Z,6.17
2023-04-21T14:55:16.040Z,6.83
2023-04-21T14:57:21.076Z,7.70
2023-04-21T14:59:23.691Z,8.23
2023-04-21T15:01:26.332Z,6.50
2023-04-21T15:03:28.766Z,6.93
2023-04-21T15:05:31.187Z,10.20
2023-04-21T15:07:33.323Z,6.43
2023-04-21T15:09:39.244Z,9.67
2023-04-21T15:11:41.423Z,5.23
2023-04-21T15:13:43.716Z,5.63
2023-04-21T15:15:45.899Z,6.97
2023-04-21T15:17:48.045Z,6.07
2023-04-21T15:19:50.552Z,8.10
2023-04-21T15:21:52.768Z,14.20
2023-04-21T15:23:54.890Z,6.70
2023-04-21T15:25:58.050Z,7.20
2023-04-21T15:28:00.837Z,8.80
2023-04-21T15:30:04.537Z,7.20
2023-04-21T15:32:07.526Z,6.07
2023-04-21T15:34:09.750Z,5.33
2023-04-21T15:36:12.075Z,4.77
2023-04-21T15:38:14.454Z,7.03
2023-04-21T15:40:16.755Z,6.67
2023-04-21T15:42:18.940Z,7.43
2023-04-21T15:44:21.198Z,9.83
2023-04-21T15:46:23.574Z,6.30
2023-04-21T15:48:26.258Z,8.07
2023-04-21T15:50:31.370Z,6.23
2023-04-21T15:52:36.033Z,8.20
2023-04-21T15:54:38.621Z,10.07
2023-04-21T15:56:41.160Z,13.30
2023-04-21T15:58:43.449Z,7.57
2023-04-21T16:00:46.033Z,8.20
2023-04-21T16:02:48.626Z,6.50
2023-04-21T16:04:52.133Z,8.00
2023-04-21T16:06:54.609Z,9.17
2023-04-21T16:08:57.518Z,7.43
2023-04-21T16:11:00.338Z,6.87
2023-04-21T16:13:02.689Z,5.97
2023-04-21T16:15:20.491Z,5.30
2023-04-21T16:17:27.866Z,10.43
2023-04-21T16:19:31.661Z,16.43
2023-04-21T16:21:35.036Z,6.87
2023-04-21T16:23:38.061Z,9.80
2023-04-21T16:25:40.258Z,6.80
2023-04-21T16:27:42.586Z,7.40
2023-04-21T16:29:45.242Z,6.60
2023-04-21T16:31:47.594Z,7.27
2023-04-21T16:33:51.130Z,5.63
2023-04-21T16:35:54.253Z,7.77
2023-04-21T16:37:57.463Z,8.20
2023-04-21T16:39:59.673Z,11.03
2023-04-21T16:42:02.205Z,6.10
2023-04-21T16:44:04.573Z,8.27
2023-04-21T16:46:06.862Z,7.10
2023-04-21T16:48:09.243Z,8.63
2023-04-21T16:50:11.761Z,11.33
2023-04-21T16:52:14.017Z,10.53
2023-04-21T16:54:16.165Z,9.40
2023-04-21T16:56:20.336Z,10.33
2023-04-21T16:58:24.591Z,6.67
2023-04-21T17:00:27.406Z,9.20
2023-04-21T17:02:29.630Z,9.00
2023-04-21T17:04:31.846Z,6.93
2023-04-21T17:06:34.345Z,9.40
2023-04-21T17:08:37.251Z,8.67
2023-04-21T17:10:39.476Z,17.33
2023-04-21T17:12:41.665Z,10.87
2023-04-21T17:14:44.025Z,12.90
2023-04-21T17:16:46.458Z,8.17
2023-04-21T17:18:48.623Z,11.20
2023-04-21T17:20:50.890Z,7.73
2023-04-21T17:22:53.154Z,8.20
2023-04-21T17:24:55.525Z,8.83
2023-04-21T17:26:58.026Z,9.77
2023-04-21T17:29:00.442Z,8.17
2023-04-21T17:31:14.585Z,7.80
2023-04-21T17:33:18.373Z,10.27
2023-04-21T17:35:21.066Z,9.70
2023-04-21T17:37:23.346Z,9.20
2023-04-21T17:39:26.397Z,10.40
2023-04-21T17:41:28.593Z,12.70
2023-04-21T17:43:30.848Z,9.03
2023-04-21T17:45:33.047Z,16.20
2023-04-21T17:47:35.347Z,9.23
2023-04-21T17:49:37.728Z,8.30
2023-04-21T17:51:39.906Z,10.27
2023-04-21T17:53:42.499Z,12.07
2023-04-21T17:55:44.873Z,10.37
2023-04-21T17:57:46.988Z,8.00
2023-04-21T17:59:49.220Z,13.50
2023-04-21T18:01:51.506Z,8.60
2023-04-21T18:03:57.764Z,10.63
2023-04-21T18:06:02.802Z,9.93
2023-04-21T18:08:05.148Z,8.83
2023-04-21T18:10:07.906Z,11.83
2023-04-21T18:12:10.243Z,9.37
2023-04-21T18:14:13.391Z,11.60
2023-04-21T18:16:15.690Z,10.63
2023-04-21T18:18:17.957Z,11.43
2023-04-21T18:20:20.604Z,10.80
2023-04-21T18:22:22.865Z,13.00
2023-04-21T18:24:25.207Z,8.90
2023-04-21T18:26:27.407Z,9.83
2023-04-21T18:28:30.758Z,9.80
2023-04-21T18:30:33.395Z,11.53
2023-04-21T18:32:36.633Z,12.33
2023-04-21T18:34:39.014Z,10.67
2023-04-21T18:36:44.187Z,10.97
2023-04-21T18:38:46.851Z,8.67
2023-04-21T18:40:49.078Z,10.67
2023-04-21T18:42:51.736Z,10.67
2023-04-21T18:44:56.300Z,11.80
2023-04-21T18:47:00.038Z,11.27
2023-04-21T18:49:02.219Z,8.47
2023-04-21T18:51:04.513Z,11.33
2023-04-21T18:53:07.707Z,9.60
2023-04-21T18:55:10.174Z,10.60
2023-04-21T18:57:12.717Z,9.03
2023-04-21T18:59:14.891Z,9.70
2023-04-21T19:01:17.101Z,11.57
2023-04-21T19:03:19.551Z,8.37
2023-04-21T19:05:21.887Z,9.10
2023-04-21T19:07:24.112Z,11.90
2023-04-21T19:09:28.105Z,11.60
2023-04-21T19:11:30.717Z,16.73
2023-04-21T19:13:32.992Z,12.90
2023-04-21T19:15:35.522Z,10.83
2023-04-21T19:17:37.774Z,9.37
2023-04-21T19:19:40.548Z,9.77
2023-04-21T19:21:43.027Z,9.00
2023-04-21T19:23:45.310Z,12.63
2023-04-21T19:25:51.438Z,10.80
2023-04-21T19:27:53.711Z,10.83
2023-04-21T19:30:00.716Z,12.67
2023-04-21T19:32:03.124Z,9.30
2023-04-21T19:34:05.436Z,11.33
2023-04-21T19:36:07.762Z,11.87
2023-04-21T19:38:10.427Z,12.40
2023-04-21T19:40:12.687Z,15.13
2023-04-21T19:42:14.999Z,14.27
2023-04-21T19:44:17.164Z,13.83
2023-04-21T19:46:19.399Z,11.13
2023-04-21T19:48:21.725Z,11.60
2023-04-21T19:50:23.990Z,12.80
2023-04-21T19:52:26.277Z,15.50
2023-04-21T19:54:28.465Z,15.63
2023-04-21T19:56:32.601Z,11.73
2023-04-21T19:58:40.883Z,14.63
2023-04-21T20:00:43.545Z,13.00
2023-04-21T20:02:46.290Z,14.97
2023-04-21T20:04:50.650Z,15.70
2023-04-21T20:06:52.937Z,13.30
2023-04-21T20:08:55.513Z,14.60
2023-04-21T20:10:57.649Z,10.43
2023-04-21T20:12:59.872Z,12.17
2023-04-21T20:15:02.565Z,9.20
2023-04-21T20:17:04.957Z,12.37
2023-04-21T20:19:07.156Z,10.30
2023-04-21T20:21:10.941Z,10.60
2023-04-21T20:23:13.054Z,11.73
2023-04-21T20:25:15.521Z,21.60
2023-04-21T20:27:18.390Z,11.80
2023-04-21T20:29:20.630Z,11.63
2023-04-21T20:31:25.544Z,11.10
2023-04-21T20:33:28.290Z,12.87
2023-04-21T20:35:30.741Z,13.67
2023-04-21T20:37:33.600Z,15.77
2023-04-21T20:39:38.004Z,11.63
2023-04-21T20:41:43.579Z,12.00
2023-04-21T20:43:46.718Z,10.10
2023-04-21T20:45:50.329Z,12.10
2023-04-21T20:47:52.537Z,15.30
2023-04-21T20:49:55.484Z,10.27
2023-04-21T20:51:58.879Z,13.67
2023-04-21T20:54:01.359Z,11.97
2023-04-21T20:56:03.573Z,13.57
2023-04-21T20:58:06.083Z,14.37
2023-04-21T21:00:12.337Z,11.40
2023-04-21T21:02:14.633Z,13.30
2023-04-21T21:04:17.070Z,10.70
2023-04-21T21:06:19.906Z,12.80
2023-04-21T21:08:22.151Z,13.37
2023-04-21T21:10:24.268Z,11.67
2023-04-21T21:12:26.386Z,11.80
2023-04-21T21:14:28.565Z,12.63
2023-04-21T21:16:30.890Z,19.23
2023-04-21T21:18:34.685Z,16.63
2023-04-21T21:20:36.917Z,15.40
2023-04-21T21:22:39.147Z,13.67
2023-04-21T21:24:41.325Z,11.97
2023-04-21T21:26:43.522Z,12.87
2023-04-21T21:28:45.660Z,12.63
2023-04-21T21:30:47.828Z,12.07
2023-04-21T21:32:50.920Z,13.17
2023-04-21T21:34:53.170Z,12.13
2023-04-21T21:36:55.362Z,14.97
2023-04-21T21:38:57.519Z,17.03
2023-04-21T21:40:59.667Z,13.90
2023-04-21T21:43:01.825Z,17.33
2023-04-21T21:45:04.262Z,12.53
2023-04-21T21:47:07.681Z,15.37
2023-04-21T21:49:10.903Z,12.10
2023-04-21T21:51:13.172Z,14.00
2023-04-21T21:53:15.379Z,15.10
2023-04-21T21:55:17.769Z,15.20
2023-04-21T21:57:20.048Z,11.70
2023-04-21T21:59:22.202Z,10.70
2023-04-21T22:01:24.570Z,12.83
2023-04-21T22:03:27.306Z,14.40
2023-04-21T22:05:29.676Z,12.73
2023-04-21T22:07:32.157Z,12.97
2023-04-21T22:09:34.922Z,15.93
2023-04-21T22:11:37.329Z,12.77
2023-04-21T22:13:39.409Z,11.23
2023-04-21T22:15:41.526Z,13.73
2023-04-21T22:17:45.495Z,12.50
2023-04-21T22:19:47.762Z,14.10
2023-04-21T22:21:50.035Z,12.87
2023-04-21T22:23:52.222Z,17.33
2023-04-21T22:25:54.335Z,15.20
2023-04-21T22:27:57.390Z,13.20
2023-04-21T22:30:00.884Z,13.73
2023-04-21T22:32:02.955Z,19.93
2023-04-21T22:34:05.209Z,15.60
2023-04-21T22:36:09.720Z,14.00
2023-04-21T22:38:12.113Z,10.93
2023-04-21T22:40:14.294Z,16.23
2023-04-21T22:42:16.363Z,11.53
2023-04-21T22:44:18.330Z,14.40
2023-04-21T22:46:20.445Z,12.93
2023-04-21T22:48:26.193Z,14.97
2023-04-21T22:50:28.211Z,13.50
2023-04-21T22:52:30.230Z,16.27
2023-04-21T22:54:32.381Z,16.57
2023-04-21T22:56:34.383Z,16.23
2023-04-21T22:58:36.482Z,14.70
2023-04-21T23:00:38.647Z,16.73
2023-04-21T23:02:40.989Z,18.10
2023-04-21T23:04:43.263Z,14.83
2023-04-21T23:06:45.252Z,13.17
2023-04-21T23:08:47.284Z,14.50
2023-04-21T23:10:49.367Z,18.10
2023-04-21T23:12:51.437Z,15.30
2023-04-21T23:14:53.516Z,22.00
2023-04-21T23:16:55.522Z,14.40
2023-04-21T23:18:57.533Z,14.10
2023-04-21T23:20:59.650Z,14.63
2023-04-21T23:23:01.685Z,15.27
2023-04-21T23:25:04.150Z,17.33
2023-04-21T23:27:06.234Z,13.47
2023-04-21T23:29:08.196Z,14.23
2023-04-21T23:31:10.224Z,12.30
2023-04-21T23:33:12.299Z,24.93
2023-04-21T23:35:14.336Z,16.47
2023-04-21T23:37:16.340Z,14.97
2023-04-21T23:39:21.485Z,16.30
2023-04-21T23:41:23.564Z,15.87
2023-04-21T23:43:25.692Z,13.03
2023-04-21T23:45:27.908Z,13.90
2023-04-21T23:47:30.353Z,15.50
2023-04-21T23:49:32.787Z,17.10
2023-04-21T23:51:34.773Z,13.90
2023-04-21T23:53:37.038Z,18.83
2023-04-21T23:55:39.321Z,14.10
2023-04-21T23:57:41.451Z,15.70
2023-04-21T23:59:43.506Z,16.70
